Time;durP1;ratioP1;P1;durP2;ratioP2;P2;SDS_P1;SDS_P2;PMS_P1;PMS_P2;Temp;Humidity;BMP_temperature;BMP_pressure;BME280_temperature;BME280_humidity;BME280_pressure;Samples;Min_cycle;Max_cycle;Signal;HPM_P1;HPM_P2
2021/11/25 00:02:12;;;;;;;;;;;6.00;99.90;;;;;;5077134;28;19962;-75
2021/11/25 00:04:38;;;;;;;;;;;6.00;99.90;;;;;;5075028;28;19909;-75
2021/11/25 00:07:03;;;;;;;;;;;6.00;99.90;;;;;;5074287;28;19912;-75
2021/11/25 00:09:29;;;;;;;;;;;5.90;99.90;;;;;;5075148;28;20413;-75
2021/11/25 00:11:54;;;;;;;;;;;5.90;99.90;;;;;;5067552;28;19912;-75
2021/11/25 00:14:21;;;;;;;;;;;5.90;99.90;;;;;;5060433;28;19969;-76
2021/11/25 00:16:47;;;;;;;;;;;5.90;99.90;;;;;;5068540;28;20315;-76
2021/11/25 00:19:12;;;;;;;;;;;5.90;99.90;;;;;;5060874;28;19920;-77
2021/11/25 00:21:38;;;;;;;;;;;5.90;99.90;;;;;;5065183;28;19999;-76
2021/11/25 00:24:05;;;;;;;;;;;5.90;99.90;;;;;;5070272;28;19916;-75
2021/11/25 00:26:33;;;;;;;;;;;5.90;99.90;;;;;;5074367;28;20138;-76
2021/11/25 00:28:59;;;;;;;;;;;5.80;99.90;;;;;;5074635;28;19954;-75
2021/11/25 00:31:25;;;;;;;;;;;5.90;99.90;;;;;;5081750;28;19943;-75
2021/11/25 00:33:50;;;;;;;;;;;5.90;99.90;;;;;;5073985;28;19912;-76
2021/11/25 00:36:16;;;;;;;;;;;5.90;99.90;;;;;;5074032;28;21497;-76
2021/11/25 00:38:42;;;;;;;;;;;5.90;99.90;;;;;;5075021;28;20372;-76
2021/11/25 00:41:07;;;;;;;;;;;6.00;99.90;;;;;;5073800;28;19991;-76
2021/11/25 00:43:33;;;;;;;;;;;6.00;99.90;;;;;;5073164;28;19935;-76
2021/11/25 00:45:58;;;;;;;;;;;5.90;99.90;;;;;;5073809;28;19913;-76
2021/11/25 00:48:24;;;;;;;;;;;5.90;99.90;;;;;;5074537;28;19912;-75
2021/11/25 00:50:49;;;;;;;;;;;5.90;99.90;;;;;;5074291;28;19916;-75
2021/11/25 00:53:15;;;;;;;;;;;5.90;99.90;;;;;;5073455;28;19959;-76
2021/11/25 00:55:41;;;;;;;;;;;5.90;99.90;;;;;;5073173;28;19970;-75
2021/11/25 00:58:07;;;;;;;;;;;5.80;99.90;;;;;;5072952;28;19919;-75
2021/11/25 01:00:33;;;;;;;;;;;5.80;99.90;;;;;;5081898;28;19913;-76
2021/11/25 01:02:58;;;;;;;;;;;5.80;99.90;;;;;;5074353;28;19978;-76
2021/11/25 01:05:24;;;;;;;;;;;5.80;99.90;;;;;;5074297;28;19912;-75
2021/11/25 01:07:49;;;;;;;;;;;5.80;99.90;;;;;;5074745;28;19916;-76
2021/11/25 01:10:17;;;;;;;;;;;5.80;99.90;;;;;;5082810;28;20675;-75
2021/11/25 01:12:43;;;;;;;;;;;5.80;99.90;;;;;;5077580;28;19935;-76
2021/11/25 01:15:10;;;;;;;;;;;5.80;99.90;;;;;;5074691;28;20315;-76
2021/11/25 01:17:39;;;;;;;;;;;5.80;99.90;;;;;;5076942;28;20035;-75
2021/11/25 01:20:06;;;;;;;;;;;5.80;99.90;;;;;;5077522;28;19999;-76
2021/11/25 01:22:31;;;;;;;;;;;5.80;99.90;;;;;;5076900;28;19948;-75
2021/11/25 01:24:57;;;;;;;;;;;5.80;99.90;;;;;;5077243;28;20002;-76
2021/11/25 01:27:22;;;;;;;;;;;5.80;99.90;;;;;;5077724;28;20333;-76
2021/11/25 01:29:48;;;;;;;;;;;5.80;99.90;;;;;;5079802;28;21809;-75
2021/11/25 01:32:13;;;;;;;;;;;5.80;99.90;;;;;;5079959;28;19913;-75
2021/11/25 01:34:39;;;;;;;;;;;5.80;99.90;;;;;;5075354;28;19995;-76
2021/11/25 01:37:04;;;;;;;;;;;5.80;99.90;;;;;;5065570;28;20291;-81
2021/11/25 01:39:30;;;;;;;;;;;5.80;99.90;;;;;;5077130;28;20512;-75
2021/11/25 01:41:56;;;;;;;;;;;5.80;99.90;;;;;;5072008;28;19916;-76
2021/11/25 01:44:21;;;;;;;;;;;5.80;99.90;;;;;;5081284;28;20314;-76
2021/11/25 01:46:47;;;;;;;;;;;5.80;99.90;;;;;;5077599;28;20266;-76
2021/11/25 01:49:15;;;;;;;;;;;5.80;99.90;;;;;;5078500;28;21230;-75
2021/11/25 01:51:40;;;;;;;;;;;5.80;99.90;;;;;;5070393;28;19912;-76
2021/11/25 01:54:06;;;;;;;;;;;5.80;99.90;;;;;;5057783;28;19923;-76
2021/11/25 01:56:32;;;;;;;;;;;5.80;99.90;;;;;;5066355;28;19996;-75
2021/11/25 01:58:58;;;;;;;;;;;5.70;99.90;;;;;;5090540;28;20306;-75
2021/11/25 02:01:24;;;;;;;;;;;5.80;99.90;;;;;;5070555;28;19944;-79
2021/11/25 02:03:51;;;;;;;;;;;5.80;99.90;;;;;;5071200;28;19913;-76
2021/11/25 02:06:18;;;;;;;;;;;5.80;99.90;;;;;;5059994;28;19913;-76
2021/11/25 02:08:44;;;;;;;;;;;5.80;99.90;;;;;;5074111;28;19916;-76
2021/11/25 02:11:10;;;;;;;;;;;5.80;99.90;;;;;;5063668;28;20011;-76
2021/11/25 02:13:36;;;;;;;;;;;5.80;99.90;;;;;;5071707;28;19960;-75
2021/11/25 02:16:05;;;;;;;;;;;5.80;99.90;;;;;;5064968;28;20282;-75
2021/11/25 02:18:31;;;;;;;;;;;5.80;99.90;;;;;;5071842;28;19920;-76
2021/11/25 02:20:58;;;;;;;;;;;5.80;99.90;;;;;;5064796;28;20215;-76
2021/11/25 02:23:24;;;;;;;;;;;5.80;99.90;;;;;;5070493;28;19909;-76
2021/11/25 02:25:50;;;;;;;;;;;5.80;99.90;;;;;;5073339;28;19920;-76
2021/11/25 02:28:19;;;;;;;;;;;5.80;99.90;;;;;;5076587;28;20337;-75
2021/11/25 02:30:45;;;;;;;;;;;5.70;99.90;;;;;;5066888;28;20196;-76
2021/11/25 02:33:10;;;;;;;;;;;5.70;99.90;;;;;;5073574;28;19908;-76
2021/11/25 02:35:39;;;;;;;;;;;5.80;99.90;;;;;;5076774;28;20307;-75
2021/11/25 02:38:05;;;;;;;;;;;5.80;99.90;;;;;;5079235;28;19965;-80
2021/11/25 02:40:44;;;;;;;;;;;5.70;99.90;;;;;;5076449;28;19908;-76
2021/11/25 02:43:12;;;;;;;;;;;5.70;99.90;;;;;;5070686;28;19954;-76
2021/11/25 02:45:51;;;;;;;;;;;5.70;99.90;;;;;;5068327;28;19917;-76
2021/11/25 02:48:18;;;;;;;;;;;5.70;99.90;;;;;;5065110;28;19909;-77
2021/11/25 02:50:44;;;;;;;;;;;5.70;99.90;;;;;;5090330;28;19959;-76
2021/11/25 02:53:10;;;;;;;;;;;5.70;99.90;;;;;;5062536;28;19917;-76
2021/11/25 02:55:36;;;;;;;;;;;5.60;99.90;;;;;;5070197;28;19921;-75
2021/11/25 02:58:01;;;;;;;;;;;5.60;99.90;;;;;;5075016;28;20413;-76
2021/11/25 03:00:29;;;;;;;;;;;5.60;99.90;;;;;;5071375;28;19915;-75
2021/11/25 03:02:56;;;;;;;;;;;5.50;99.90;;;;;;5061078;28;20013;-75
2021/11/25 03:05:21;;;;;;;;;;;5.50;99.90;;;;;;5072729;28;20303;-76
2021/11/25 03:07:47;;;;;;;;;;;5.50;99.90;;;;;;5073704;28;19913;-75
2021/11/25 03:10:13;;;;;;;;;;;5.40;99.90;;;;;;5066290;28;19920;-76
2021/11/25 03:12:38;;;;;;;;;;;5.40;99.90;;;;;;5073077;28;20031;-75
2021/11/25 03:15:04;;;;;;;;;;;5.40;99.90;;;;;;5074393;28;19917;-75
2021/11/25 03:17:30;;;;;;;;;;;5.40;99.90;;;;;;5072560;28;19920;-75
2021/11/25 03:19:55;;;;;;;;;;;5.30;99.90;;;;;;5066017;28;19920;-76
2021/11/25 03:22:21;;;;;;;;;;;5.30;99.90;;;;;;5063922;28;20227;-75
2021/11/25 03:24:47;;;;;;;;;;;5.30;99.90;;;;;;5076080;28;19908;-75
2021/11/25 03:27:12;;;;;;;;;;;5.30;99.90;;;;;;5070453;28;19909;-76
2021/11/25 03:29:38;;;;;;;;;;;5.20;99.90;;;;;;5074573;28;19917;-75
2021/11/25 03:32:04;;;;;;;;;;;5.20;99.90;;;;;;5066237;28;19924;-80
2021/11/25 03:34:29;;;;;;;;;;;5.20;99.90;;;;;;5078086;28;19912;-75
2021/11/25 03:36:55;;;;;;;;;;;5.20;99.90;;;;;;5086148;28;19970;-75
2021/11/25 03:39:20;;;;;;;;;;;5.20;99.90;;;;;;5070255;28;19944;-75
2021/11/25 03:41:46;;;;;;;;;;;5.20;99.90;;;;;;5075095;28;20007;-75
2021/11/25 03:44:11;;;;;;;;;;;5.20;99.90;;;;;;5073910;28;19908;-75
2021/11/25 03:46:37;;;;;;;;;;;5.20;99.90;;;;;;5062841;28;19913;-75
2021/11/25 03:49:03;;;;;;;;;;;5.20;99.90;;;;;;5079285;28;20291;-75
2021/11/25 03:51:28;;;;;;;;;;;5.20;99.90;;;;;;5076359;28;19924;-76
2021/11/25 03:53:54;;;;;;;;;;;5.20;99.90;;;;;;5074908;28;19919;-75
2021/11/25 03:56:20;;;;;;;;;;;5.20;99.90;;;;;;5074130;28;19912;-75
2021/11/25 03:58:45;;;;;;;;;;;5.20;99.90;;;;;;5074376;28;20274;-76
2021/11/25 04:01:11;;;;;;;;;;;5.20;99.90;;;;;;5080083;28;19944;-76
2021/11/25 04:03:37;;;;;;;;;;;5.10;99.90;;;;;;5074159;28;19908;-75
2021/11/25 04:06:03;;;;;;;;;;;5.10;99.90;;;;;;5073266;28;19919;-75
2021/11/25 04:08:28;;;;;;;;;;;5.10;99.90;;;;;;5074600;28;20291;-76
2021/11/25 04:10:54;;;;;;;;;;;5.20;99.90;;;;;;5077825;28;19923;-75
2021/11/25 04:13:20;;;;;;;;;;;5.10;99.90;;;;;;5061579;28;19913;-76
2021/11/25 04:15:45;;;;;;;;;;;5.10;99.90;;;;;;5072949;28;19994;-78
2021/11/25 04:18:11;;;;;;;;;;;5.10;99.90;;;;;;5072585;28;19930;-75
2021/11/25 04:20:37;;;;;;;;;;;5.10;99.90;;;;;;5063688;28;20366;-76
2021/11/25 04:23:03;;;;;;;;;;;5.10;99.90;;;;;;5068349;28;19944;-76
2021/11/25 04:25:29;;;;;;;;;;;5.00;99.90;;;;;;5073454;28;20003;-76
2021/11/25 04:27:54;;;;;;;;;;;5.00;99.90;;;;;;5073343;28;20027;-76
2021/11/25 04:35:32;;;;;;;;;;;5.00;99.90;;;;;;5074314;28;19965;-75
2021/11/25 04:37:59;;;;;;;;;;;4.90;99.90;;;;;;5073959;28;19935;-76
2021/11/25 04:40:24;;;;;;;;;;;4.90;99.90;;;;;;5070592;28;19909;-77
2021/11/25 04:42:50;;;;;;;;;;;4.90;99.90;;;;;;5073256;28;19919;-76
2021/11/25 04:45:15;;;;;;;;;;;4.90;99.90;;;;;;5075213;28;19921;-75
2021/11/25 04:47:41;;;;;;;;;;;4.90;99.90;;;;;;5070607;28;19916;-75
2021/11/25 04:50:07;;;;;;;;;;;5.00;99.90;;;;;;5071659;28;19916;-75
2021/11/25 04:52:33;;;;;;;;;;;5.00;99.90;;;;;;5073554;28;20007;-75
2021/11/25 04:54:59;;;;;;;;;;;5.00;99.90;;;;;;5074306;28;19989;-75
2021/11/25 04:57:24;;;;;;;;;;;5.00;99.90;;;;;;5074038;28;19920;-75
2021/11/25 04:59:50;;;;;;;;;;;5.00;99.90;;;;;;5071607;28;19912;-76
2021/11/25 05:02:15;;;;;;;;;;;5.00;99.90;;;;;;5052615;28;20330;-75
2021/11/25 05:04:41;;;;;;;;;;;5.00;99.90;;;;;;5065495;28;19913;-76
2021/11/25 05:07:07;;;;;;;;;;;5.00;99.90;;;;;;5075997;28;19927;-75
2021/11/25 05:09:32;;;;;;;;;;;5.00;99.90;;;;;;5074045;28;19978;-76
2021/11/25 05:11:58;;;;;;;;;;;4.90;99.90;;;;;;5069809;28;19936;-76
2021/11/25 05:14:23;;;;;;;;;;;5.00;99.90;;;;;;5070885;28;20204;-76
2021/11/25 05:16:49;;;;;;;;;;;5.00;99.90;;;;;;5073435;28;19913;-76
2021/11/25 05:19:16;;;;;;;;;;;5.00;99.90;;;;;;5073805;28;19920;-75
2021/11/25 05:21:42;;;;;;;;;;;5.00;99.90;;;;;;5072925;28;19913;-75
2021/11/25 05:24:07;;;;;;;;;;;5.00;99.90;;;;;;5068612;28;19909;-76
2021/11/25 05:26:33;;;;;;;;;;;5.00;99.90;;;;;;5078314;28;19912;-75
2021/11/25 05:28:59;;;;;;;;;;;5.10;99.90;;;;;;5073343;28;19913;-75
2021/11/25 05:31:25;;;;;;;;;;;5.00;99.90;;;;;;5064383;28;19955;-75
2021/11/25 05:33:50;;;;;;;;;;;5.00;99.90;;;;;;5073125;28;19965;-76
2021/11/25 05:36:16;;;;;;;;;;;4.90;99.90;;;;;;5069498;28;19916;-75
2021/11/25 05:38:41;;;;;;;;;;;4.90;99.90;;;;;;5068279;28;19916;-75
2021/11/25 05:41:07;;;;;;;;;;;4.90;99.90;;;;;;5060898;28;19908;-75
2021/11/25 05:43:33;;;;;;;;;;;4.90;99.90;;;;;;5072444;28;19908;-76
2021/11/25 05:45:58;;;;;;;;;;;4.90;99.90;;;;;;5063963;28;19962;-75
2021/11/25 05:48:24;;;;;;;;;;;4.90;99.90;;;;;;5073291;28;20311;-75
2021/11/25 05:50:50;;;;;;;;;;;4.90;99.90;;;;;;5075848;28;19908;-76
2021/11/25 05:53:18;;;;;;;;;;;4.90;99.90;;;;;;5073393;28;19913;-76
2021/11/25 05:55:44;;;;;;;;;;;4.90;99.90;;;;;;5074255;28;19923;-76
2021/11/25 05:58:10;;;;;;;;;;;4.90;99.90;;;;;;5077832;28;19912;-75
2021/11/25 06:00:35;;;;;;;;;;;4.90;99.90;;;;;;5074630;28;19917;-75
2021/11/25 06:03:01;;;;;;;;;;;4.90;99.90;;;;;;5060461;28;20223;-75
2021/11/25 06:05:27;;;;;;;;;;;4.90;99.90;;;;;;5070677;28;20266;-75
2021/11/25 06:07:53;;;;;;;;;;;4.90;99.90;;;;;;5066937;28;20246;-75
2021/11/25 06:10:21;;;;;;;;;;;4.90;99.90;;;;;;5067769;28;20015;-75
2021/11/25 06:12:47;;;;;;;;;;;4.90;99.90;;;;;;5068989;28;19928;-80
2021/11/25 06:15:12;;;;;;;;;;;4.90;99.90;;;;;;5068240;28;19921;-75
2021/11/25 06:17:38;;;;;;;;;;;4.90;99.90;;;;;;5068034;28;19917;-75
2021/11/25 06:20:10;;;;;;;;;;;4.90;99.90;;;;;;5069744;28;20180;-76
2021/11/25 06:22:36;;;;;;;;;;;4.90;99.90;;;;;;5070886;28;19916;-75
2021/11/25 06:25:02;;;;;;;;;;;4.90;99.90;;;;;;5068895;28;19970;-75
2021/11/25 06:27:27;;;;;;;;;;;4.90;99.90;;;;;;5070491;28;19916;-75
2021/11/25 06:29:53;;;;;;;;;;;4.90;99.90;;;;;;5069227;28;19916;-75
2021/11/25 06:32:18;;;;;;;;;;;4.90;99.90;;;;;;5068087;28;20358;-76
2021/11/25 06:34:44;;;;;;;;;;;4.90;99.90;;;;;;5067408;28;20015;-76
2021/11/25 06:37:10;;;;;;;;;;;4.90;99.90;;;;;;5067928;28;20346;-75
2021/11/25 06:39:35;;;;;;;;;;;4.90;99.90;;;;;;5069914;28;19917;-75
2021/11/25 06:42:01;;;;;;;;;;;4.90;99.90;;;;;;5068735;28;19916;-75
2021/11/25 06:44:26;;;;;;;;;;;4.90;99.90;;;;;;5067457;28;19920;-75
2021/11/25 06:46:52;;;;;;;;;;;5.00;99.90;;;;;;5070024;28;19913;-76
2021/11/25 06:49:17;;;;;;;;;;;5.00;99.90;;;;;;5066134;28;19913;-75
2021/11/25 06:51:43;;;;;;;;;;;5.00;99.90;;;;;;5070598;28;19951;-76
2021/11/25 06:54:09;;;;;;;;;;;5.00;99.90;;;;;;5066303;28;19924;-75
2021/11/25 06:56:34;;;;;;;;;;;5.00;99.90;;;;;;5066491;28;20369;-76
2021/11/25 06:59:00;;;;;;;;;;;5.00;99.90;;;;;;5073057;28;19912;-76
2021/11/25 07:01:25;;;;;;;;;;;5.00;99.90;;;;;;5072046;28;19955;-76
2021/11/25 07:03:51;;;;;;;;;;;5.00;99.90;;;;;;5072035;28;19913;-76
2021/11/25 07:06:17;;;;;;;;;;;5.10;99.90;;;;;;5075038;28;19923;-75
2021/11/25 07:08:42;;;;;;;;;;;5.10;99.90;;;;;;5075035;28;19920;-76
2021/11/25 07:11:08;;;;;;;;;;;5.10;99.90;;;;;;5074996;28;19995;-76
2021/11/25 07:13:33;;;;;;;;;;;5.10;99.90;;;;;;5070240;28;20448;-75
2021/11/25 07:15:59;;;;;;;;;;;5.10;99.90;;;;;;5072555;28;19958;-75
2021/11/25 07:18:25;;;;;;;;;;;5.10;99.90;;;;;;5078124;28;19921;-76
2021/11/25 07:20:50;;;;;;;;;;;5.20;99.90;;;;;;5075542;28;19912;-76
2021/11/25 07:23:16;;;;;;;;;;;5.20;99.90;;;;;;5088237;28;19920;-75
2021/11/25 07:25:41;;;;;;;;;;;5.20;99.90;;;;;;5074261;28;19913;-76
2021/11/25 07:28:07;;;;;;;;;;;5.20;99.90;;;;;;5064487;28;19911;-76
2021/11/25 07:30:33;;;;;;;;;;;5.20;99.90;;;;;;5064597;28;19921;-76
2021/11/25 07:32:58;;;;;;;;;;;5.30;99.90;;;;;;5062980;28;20000;-75
2021/11/25 07:35:24;;;;;;;;;;;5.20;99.90;;;;;;5062198;28;19967;-75
2021/11/25 07:37:52;;;;;;;;;;;5.30;99.90;;;;;;5070529;28;19960;-77
2021/11/25 07:40:18;;;;;;;;;;;5.30;99.90;;;;;;5068558;28;19920;-75
2021/11/25 07:42:44;;;;;;;;;;;5.30;99.90;;;;;;5065221;28;19916;-75
2021/11/25 07:45:09;;;;;;;;;;;5.40;99.90;;;;;;5066670;28;19913;-76
2021/11/25 07:47:37;;;;;;;;;;;5.40;99.90;;;;;;5069161;28;19917;-76
2021/11/25 07:50:07;;;;;;;;;;;5.40;99.90;;;;;;5066565;28;20254;-76
2021/11/25 07:52:32;;;;;;;;;;;5.40;99.90;;;;;;5073289;28;19959;-76
2021/11/25 07:54:58;;;;;;;;;;;5.50;99.90;;;;;;5060782;28;19979;-75
2021/11/25 07:57:25;;;;;;;;;;;5.50;99.90;;;;;;5069457;28;19938;-75
2021/11/25 07:59:51;;;;;;;;;;;5.60;99.90;;;;;;5066700;28;20015;-83
2021/11/25 08:02:19;;;;;;;;;;;5.70;99.90;;;;;;5069442;28;20003;-76
2021/11/25 08:04:44;;;;;;;;;;;5.70;99.90;;;;;;5067885;28;19908;-75
2021/11/25 08:07:10;;;;;;;;;;;5.80;99.90;;;;;;5063782;28;20348;-75
2021/11/25 08:09:36;;;;;;;;;;;5.80;99.90;;;;;;5064795;28;19912;-76
2021/11/25 08:12:01;;;;;;;;;;;5.80;99.90;;;;;;5061194;28;19923;-75
2021/11/25 08:14:27;;;;;;;;;;;5.80;99.90;;;;;;5071181;28;19938;-75
2021/11/25 08:16:58;;;;;;;;;;;5.80;99.90;;;;;;5076157;28;19916;-75
2021/11/25 08:19:23;;;;;;;;;;;5.80;99.90;;;;;;5065601;28;20014;-75
2021/11/25 08:21:49;;;;;;;;;;;5.80;99.90;;;;;;5067101;28;20002;-75
2021/11/25 08:24:14;;;;;;;;;;;5.80;99.90;;;;;;5065794;28;19916;-75
2021/11/25 08:26:40;;;;;;;;;;;5.80;99.90;;;;;;5066272;28;20065;-75
2021/11/25 08:29:05;;;;;;;;;;;5.80;99.90;;;;;;5072678;28;19913;-76
2021/11/25 08:31:31;;;;;;;;;;;5.90;99.90;;;;;;5076027;28;19916;-75
2021/11/25 08:33:56;;;;;;;;;;;5.90;99.90;;;;;;5063130;28;20344;-75
2021/11/25 08:36:22;;;;;;;;;;;5.90;99.90;;;;;;5072867;28;19982;-75
2021/11/25 08:38:48;;;;;;;;;;;6.00;99.90;;;;;;5088705;28;19916;-75
2021/11/25 08:41:14;;;;;;;;;;;6.00;99.90;;;;;;5073428;28;20256;-86
2021/11/25 08:43:40;;;;;;;;;;;6.10;99.90;;;;;;5069748;28;19924;-75
2021/11/25 08:46:05;;;;;;;;;;;6.20;99.90;;;;;;5074037;28;19917;-74
2021/11/25 08:48:31;;;;;;;;;;;6.10;99.90;;;;;;5066123;28;19999;-75
2021/11/25 08:50:57;;;;;;;;;;;6.20;99.90;;;;;;5051107;28;19921;-76
2021/11/25 08:53:23;;;;;;;;;;;6.40;99.90;;;;;;5067602;28;19920;-74
2021/11/25 08:55:50;;;;;;;;;;;6.30;99.90;;;;;;5068183;28;19921;-75
2021/11/25 08:58:15;;;;;;;;;;;6.40;99.90;;;;;;5065016;28;20303;-75
2021/11/25 09:00:41;;;;;;;;;;;6.50;99.90;;;;;;5066105;28;19923;-75
2021/11/25 09:03:07;;;;;;;;;;;6.60;99.90;;;;;;5066308;28;19926;-76
2021/11/25 09:05:32;;;;;;;;;;;6.60;99.90;;;;;;5066506;28;19999;-75
2021/11/25 09:07:58;;;;;;;;;;;6.70;99.90;;;;;;5063085;28;20364;-75
2021/11/25 09:10:24;;;;;;;;;;;6.80;99.90;;;;;;5065104;28;19913;-75
2021/11/25 09:12:50;;;;;;;;;;;6.90;99.90;;;;;;5065973;28;19927;-75
2021/11/25 09:15:15;;;;;;;;;;;6.90;99.90;;;;;;5067535;28;19935;-75
2021/11/25 09:17:41;;;;;;;;;;;6.90;99.90;;;;;;5068913;28;19982;-75
2021/11/25 09:20:07;;;;;;;;;;;6.90;99.90;;;;;;5063935;28;19924;-76
2021/11/25 09:22:33;;;;;;;;;;;6.90;99.90;;;;;;5065396;28;19916;-74
2021/11/25 09:24:58;;;;;;;;;;;7.00;99.90;;;;;;5067250;28;19912;-75
2021/11/25 09:27:24;;;;;;;;;;;7.00;99.90;;;;;;5069203;28;19913;-75
2021/11/25 09:29:50;;;;;;;;;;;7.00;99.90;;;;;;5066834;28;19912;-75
2021/11/25 09:32:15;;;;;;;;;;;7.00;99.90;;;;;;5068032;28;19956;-75
2021/11/25 09:34:41;;;;;;;;;;;7.10;99.90;;;;;;5073399;28;19932;-74
2021/11/25 09:37:07;;;;;;;;;;;7.10;99.90;;;;;;5067580;28;19962;-82
2021/11/25 09:39:32;;;;;;;;;;;7.20;99.90;;;;;;5069379;28;19924;-75
2021/11/25 09:41:58;;;;;;;;;;;7.20;99.90;;;;;;5074407;28;19916;-75
2021/11/25 09:44:24;;;;;;;;;;;7.30;99.90;;;;;;5068677;28;19954;-75
2021/11/25 09:46:54;;;;;;;;;;;7.40;99.90;;;;;;5074704;28;19913;-74
2021/11/25 09:49:24;;;;;;;;;;;7.50;99.90;;;;;;5072222;28;19926;-75
2021/11/25 09:51:50;;;;;;;;;;;7.50;99.90;;;;;;5060426;28;19912;-75
2021/11/25 09:54:16;;;;;;;;;;;7.50;99.90;;;;;;5062387;28;20431;-75
2021/11/25 09:56:41;;;;;;;;;;;7.60;99.90;;;;;;5067245;28;19916;-75
2021/11/25 09:59:07;;;;;;;;;;;7.60;99.90;;;;;;5059257;28;20304;-74
2021/11/25 10:01:34;;;;;;;;;;;7.70;99.90;;;;;;5068904;28;20542;-75
2021/11/25 10:04:00;;;;;;;;;;;7.80;99.90;;;;;;5065711;28;19924;-75
2021/11/25 10:06:29;;;;;;;;;;;7.90;99.90;;;;;;5067950;28;20318;-81
2021/11/25 10:08:56;;;;;;;;;;;7.90;99.90;;;;;;5064932;28;20444;-75
2021/11/25 10:11:22;;;;;;;;;;;8.00;99.90;;;;;;5065626;28;20083;-74
2021/11/25 10:13:54;;;;;;;;;;;8.00;99.90;;;;;;5065711;28;20023;-75
2021/11/25 10:16:23;;;;;;;;;;;8.10;99.90;;;;;;5063139;28;19935;-74
2021/11/25 10:18:49;;;;;;;;;;;8.20;99.90;;;;;;5063860;28;19931;-74
2021/11/25 10:21:16;;;;;;;;;;;8.20;99.90;;;;;;5068182;28;19924;-75
2021/11/25 10:23:44;;;;;;;;;;;8.20;99.90;;;;;;5063053;28;19916;-74
2021/11/25 10:26:11;;;;;;;;;;;8.20;99.90;;;;;;5064535;28;20299;-75
2021/11/25 10:28:39;;;;;;;;;;;8.30;99.90;;;;;;5065442;28;19927;-76
2021/11/25 10:31:07;;;;;;;;;;;8.30;99.90;;;;;;5065335;28;19924;-75
2021/11/25 10:33:51;;;;;;;;;;;8.30;99.90;;;;;;5064374;28;19932;-75
2021/11/25 10:39:01;;;;;;;;;;;8.20;99.90;;;;;;5066610;28;19969;-75
2021/11/25 10:41:28;;;;;;;;;;;8.30;99.90;;;;;;5065103;28;19928;-75
2021/11/25 10:44:01;;;;;;;;;;;8.30;99.90;;;;;;5064412;28;19924;-74
2021/11/25 10:46:41;;;;;;;;;;;8.20;99.90;;;;;;5069126;28;19928;-74
2021/11/25 10:49:07;;;;;;;;;;;8.20;99.90;;;;;;5065661;28;19920;-75
2021/11/25 10:51:35;;;;;;;;;;;8.20;99.90;;;;;;5069639;28;19963;-75
2021/11/25 10:54:01;;;;;;;;;;;8.20;99.90;;;;;;5066470;28;19924;-75
2021/11/25 10:56:34;;;;;;;;;;;8.20;99.90;;;;;;5064340;28;19920;-75
2021/11/25 10:58:59;;;;;;;;;;;8.10;99.90;;;;;;5056096;28;19959;-75
2021/11/25 11:01:31;;;;;;;;;;;8.10;99.90;;;;;;5065748;28;20390;-75
2021/11/25 11:03:59;;;;;;;;;;;8.10;99.90;;;;;;5053546;28;19920;-74
2021/11/25 11:06:35;;;;;;;;;;;8.10;99.90;;;;;;5065659;28;19916;-75
2021/11/25 11:09:01;;;;;;;;;;;8.10;99.90;;;;;;5065974;28;19917;-75
2021/11/25 11:11:27;;;;;;;;;;;8.10;99.90;;;;;;5063397;28;20003;-74
2021/11/25 11:14:29;;;;;;;;;;;8.20;99.90;;;;;;5065179;28;20046;-75
2021/11/25 11:16:50;;;;;;;;;;;8.20;99.90;;;;;;5062812;28;19982;-74
2021/11/25 11:19:16;;;;;;;;;;;8.20;99.90;;;;;;5064525;28;20320;-75
2021/11/25 11:21:49;;;;;;;;;;;8.30;99.90;;;;;;5062785;28;19916;-76
2021/11/25 11:24:17;;;;;;;;;;;8.30;99.90;;;;;;5066719;28;19916;-75
2021/11/25 11:26:45;;;;;;;;;;;8.30;99.90;;;;;;5065745;28;19913;-74
2021/11/25 11:29:12;;;;;;;;;;;8.30;99.90;;;;;;5065802;28;19934;-75
2021/11/25 11:31:38;;;;;;;;;;;8.40;99.90;;;;;;5064520;28;20316;-75
2021/11/25 11:34:05;;;;;;;;;;;8.50;99.90;;;;;;5066574;28;19917;-75
2021/11/25 11:36:32;;;;;;;;;;;8.50;99.90;;;;;;5077276;28;19935;-75
2021/11/25 11:38:58;;;;;;;;;;;8.60;99.90;;;;;;5068620;28;19921;-76
2021/11/25 11:41:29;;;;;;;;;;;8.60;99.90;;;;;;5063841;28;19920;-75
2021/11/25 11:43:56;;;;;;;;;;;8.60;99.90;;;;;;5061732;28;20212;-75
2021/11/25 11:46:22;;;;;;;;;;;8.60;99.90;;;;;;5061727;28;20323;-75
2021/11/25 11:48:48;;;;;;;;;;;8.60;99.90;;;;;;5062096;28;19959;-75
2021/11/25 11:51:15;;;;;;;;;;;8.60;99.90;;;;;;5069291;28;19952;-75
2021/11/25 11:53:42;;;;;;;;;;;8.50;99.90;;;;;;5068423;28;20200;-75
2021/11/25 11:56:08;;;;;;;;;;;8.50;99.90;;;;;;5063482;28;19978;-75
2021/11/25 11:58:36;;;;;;;;;;;8.50;99.90;;;;;;5066207;28;19916;-75
2021/11/25 12:01:21;;;;;;;;;;;8.50;99.90;;;;;;5065338;28;19958;-75
2021/11/25 12:03:49;;;;;;;;;;;8.40;99.90;;;;;;5069785;28;19970;-75
2021/11/25 12:06:31;;;;;;;;;;;8.30;99.90;;;;;;5074480;28;19999;-75
2021/11/25 12:08:56;;;;;;;;;;;8.30;99.90;;;;;;5060713;28;19932;-75
2021/11/25 12:11:22;;;;;;;;;;;8.20;99.90;;;;;;5067920;28;20215;-75
2021/11/25 12:13:56;;;;;;;;;;;8.30;99.90;;;;;;5063745;28;19920;-75
2021/11/25 12:16:22;;;;;;;;;;;8.30;99.90;;;;;;5071836;28;19927;-76
2021/11/25 12:18:53;;;;;;;;;;;8.40;99.90;;;;;;5071493;28;19924;-75
2021/11/25 12:21:37;;;;;;;;;;;8.50;99.90;;;;;;5066615;28;20003;-75
2021/11/25 12:24:14;;;;;;;;;;;8.50;99.90;;;;;;5066553;28;20341;-75
2021/11/25 12:26:58;;;;;;;;;;;8.60;99.90;;;;;;5070741;28;19920;-74
2021/11/25 12:29:44;;;;;;;;;;;8.60;99.90;;;;;;5076584;28;19917;-81
2021/11/25 12:35:02;;;;;;;;;;;8.50;99.90;;;;;;5064578;28;20062;-75
2021/11/25 12:37:50;;;;;;;;;;;8.50;99.90;;;;;;5058671;28;19917;-75
2021/11/25 12:40:16;;;;;;;;;;;8.50;99.90;;;;;;5064305;28;19917;-75
2021/11/25 12:42:42;;;;;;;;;;;8.40;99.90;;;;;;5064308;28;19924;-76
2021/11/25 12:45:22;;;;;;;;;;;8.40;99.90;;;;;;5064919;28;20442;-76
2021/11/25 12:47:47;;;;;;;;;;;8.30;99.90;;;;;;5063537;28;20610;-76
2021/11/25 12:50:21;;;;;;;;;;;8.30;99.90;;;;;;5066791;28;19916;-75
2021/11/25 12:52:47;;;;;;;;;;;8.20;99.90;;;;;;5077468;28;19921;-76
2021/11/25 12:55:14;;;;;;;;;;;8.10;99.90;;;;;;5062587;28;19921;-76
2021/11/25 12:57:53;;;;;;;;;;;8.00;99.90;;;;;;5064159;28;19916;-75
2021/11/25 13:00:21;;;;;;;;;;;7.80;99.90;;;;;;5063497;28;19916;-75
2021/11/25 13:02:47;;;;;;;;;;;7.80;99.90;;;;;;5063818;28;19950;-75
2021/11/25 13:05:12;;;;;;;;;;;7.90;99.90;;;;;;5065201;28;20234;-75
2021/11/25 13:07:46;;;;;;;;;;;8.20;99.90;;;;;;5066787;28;19927;-76
2021/11/25 13:10:22;;;;;;;;;;;8.40;99.90;;;;;;5071378;28;20369;-75
2021/11/25 13:12:48;;;;;;;;;;;8.60;99.90;;;;;;5067305;28;19921;-74
2021/11/25 13:15:15;;;;;;;;;;;8.50;99.90;;;;;;5068588;28;19974;-75
2021/11/25 13:17:53;;;;;;;;;;;8.40;99.90;;;;;;5066260;28;19968;-75
2021/11/25 13:20:38;;;;;;;;;;;8.30;99.90;;;;;;5067204;28;20022;-75
2021/11/25 13:23:05;;;;;;;;;;;8.30;99.90;;;;;;5069301;28;19969;-75
2021/11/25 13:25:30;;;;;;;;;;;8.40;99.90;;;;;;5068239;28;20316;-76
2021/11/25 13:27:56;;;;;;;;;;;8.20;99.90;;;;;;5066870;28;19987;-76
2021/11/25 13:30:22;;;;;;;;;;;8.10;99.90;;;;;;5067673;28;19916;-75
2021/11/25 13:32:50;;;;;;;;;;;8.10;99.90;;;;;;5057035;28;19924;-75
2021/11/25 13:35:16;;;;;;;;;;;8.10;99.90;;;;;;5068328;28;20307;-76
2021/11/25 13:37:44;;;;;;;;;;;8.10;99.90;;;;;;5054544;28;19917;-75
2021/11/25 13:40:15;;;;;;;;;;;8.20;99.90;;;;;;5067156;28;19988;-74
2021/11/25 13:42:42;;;;;;;;;;;8.20;99.90;;;;;;5065400;28;19924;-76
2021/11/25 13:45:09;;;;;;;;;;;8.40;99.90;;;;;;5066913;28;19920;-76
2021/11/25 13:47:35;;;;;;;;;;;8.50;99.90;;;;;;5072187;28;20007;-75
2021/11/25 13:50:04;;;;;;;;;;;8.60;99.90;;;;;;5068239;28;19969;-76
2021/11/25 13:52:40;;;;;;;;;;;8.80;99.90;;;;;;5067446;28;19956;-76
2021/11/25 13:55:10;;;;;;;;;;;9.00;99.90;;;;;;5067441;28;20011;-77
2021/11/25 13:57:38;;;;;;;;;;;8.90;99.90;;;;;;5066683;28;20570;-77
2021/11/25 14:00:10;;;;;;;;;;;8.90;99.90;;;;;;5066339;28;20246;-76
2021/11/25 14:02:36;;;;;;;;;;;8.80;99.90;;;;;;5067201;28;19920;-77
2021/11/25 14:05:03;;;;;;;;;;;8.80;99.90;;;;;;5067597;28;19974;-76
2021/11/25 14:07:29;;;;;;;;;;;8.70;99.90;;;;;;5066893;28;19916;-78
2021/11/25 14:10:07;;;;;;;;;;;8.60;99.90;;;;;;5064583;28;19913;-80
2021/11/25 14:12:36;;;;;;;;;;;8.50;99.90;;;;;;5068537;28;19917;-77
2021/11/25 14:15:03;;;;;;;;;;;8.50;99.90;;;;;;5068151;28;19978;-78
2021/11/25 14:17:28;;;;;;;;;;;8.40;99.90;;;;;;5065915;28;19921;-76
2021/11/25 14:19:55;;;;;;;;;;;8.40;99.90;;;;;;5066870;28;19919;-76
2021/11/25 14:22:22;;;;;;;;;;;8.30;99.90;;;;;;5065041;28;19993;-79
2021/11/25 14:24:49;;;;;;;;;;;8.30;99.90;;;;;;5064553;28;19952;-76
2021/11/25 14:32:32;;;;;;;;;;;8.30;99.90;;;;;;5068715;28;19923;-78
2021/11/25 14:34:58;;;;;;;;;;;8.40;99.90;;;;;;5071083;28;19931;-81
2021/11/25 14:37:28;;;;;;;;;;;8.10;99.90;;;;;;5059470;28;19917;-81
2021/11/25 14:39:55;;;;;;;;;;;7.90;99.90;;;;;;5067300;28;19916;-79
2021/11/25 14:42:25;;;;;;;;;;;7.80;99.90;;;;;;5072425;28;20027;-79
2021/11/25 14:45:07;;;;;;;;;;;7.70;99.90;;;;;;5073879;28;19970;-78
2021/11/25 14:47:48;;;;;;;;;;;7.60;99.90;;;;;;5059526;28;20346;-78